sensor_id;sensor_type;location;lat;lon;timestamp;pressure;altitude;pressure_sealevel;temperature;humidity
85053;BME280;75382;46.706;12.340;2024-03-06T00:00:12;1012.9294955187665;;;5.8865234375;63.34153540875301
85053;BME280;75382;46.706;12.340;2024-03-06T00:01:10;1012.9517919141472;;;5.8712890625;63.547617984542356
85053;BME280;75382;46.706;12.340;2024-03-06T00:02:11;1012.9339744363725;;;5.855859375;63.52002276531805
85053;BME280;75382;46.706;12.340;2024-03-06T00:03:11;1012.8947369212127;;;5.855859375;63.37722164014935
85053;BME280;75382;46.706;12.340;2024-03-06T00:04:13;1012.9503016417117;;;5.825390625;63.430531046256036
85053;BME280;75382;46.706;12.340;2024-03-06T00:05:11;1012.9257112091908;;;5.825390625;63.33809184650286
85053;BME280;75382;46.706;12.340;2024-03-06T00:06:10;1012.912810829095;;;5.794921875;63.57142438983743
85053;BME280;75382;46.706;12.340;2024-03-06T00:07:11;1012.948215044165;;;5.78984375;63.461059310070745
85053;BME280;75382;46.706;12.340;2024-03-06T00:08:13;1012.9417636819919;;;5.7744140625;63.53680470185652
85053;BME280;75382;46.706;12.340;2024-03-06T00:09:11;1012.9083179500724;;;5.7693359375;63.57981534687107
85053;BME280;75382;46.706;12.340;2024-03-06T00:10:11;1012.9271490498865;;;5.7541015625;63.759188649721985
85053;BME280;75382;46.706;12.340;2024-03-06T00:11:11;1012.9198251312118;;;5.7439453125;63.785178775834616
85053;BME280;75382;46.706;12.340;2024-03-06T00:12:11;1012.9076880467073;;;5.7337890625;63.90453109053129
85053;BME280;75382;46.706;12.340;2024-03-06T00:13:11;1012.9627514447864;;;5.71328125;63.866035216390266
85053;BME280;75382;46.706;12.340;2024-03-06T00:14:13;1012.9553243929596;;;5.703125;63.72328088987332
85053;BME280;75382;46.706;12.340;2024-03-06T00:15:11;1012.9675910080665;;;5.698046875;63.683837449756396
85053;BME280;75382;46.706;12.340;2024-03-06T00:16:11;1012.94387668426;;;5.6828125;63.98377843287812
85053;BME280;75382;46.706;12.340;2024-03-06T00:17:11;1012.9979628775841;;;5.6828125;63.91256651569454
85053;BME280;75382;46.706;12.340;2024-03-06T00:18:11;1012.9815731143597;;;5.687890625;64.06076459247573
85053;BME280;75382;46.706;12.340;2024-03-06T00:19:11;1013.002009786769;;;5.698046875;63.8853000046779
85053;BME280;75382;46.706;12.340;2024-03-06T00:20:11;1012.9939159460176;;;5.687890625;63.972552062789944
85053;BME280;75382;46.706;12.340;2024-03-06T00:21:11;1012.9800352954142;;;5.6828125;63.83621972848548
85053;BME280;75382;46.706;12.340;2024-03-06T00:22:11;1013.02669522235;;;5.6828125;63.80381704878873
85053;BME280;75382;46.706;12.340;2024-03-06T00:23:11;1013.0144532442231;;;5.6828125;64.11978478437135
85053;BME280;75382;46.706;12.340;2024-03-06T00:24:12;1013.0381679753704;;;5.687890625;64.03766894828486
85053;BME280;75382;46.706;12.340;2024-03-06T00:25:11;1013.0709472877257;;;5.677734375;63.98891157199817
85053;BME280;75382;46.706;12.340;2024-03-06T00:26:11;1013.0775031533988;;;5.69296875;63.874074591153516
85053;BME280;75382;46.706;12.340;2024-03-06T00:27:11;1013.0801104949428;;;5.677734375;64.0748640348854
85053;BME280;75382;46.706;12.340;2024-03-06T00:28:11;1013.06536015795;;;5.667578125;63.83525256154296
85053;BME280;75382;46.706;12.340;2024-03-06T00:29:11;1013.0654592117214;;;5.657421875;63.81216730703321
85053;BME280;75382;46.706;12.340;2024-03-06T00:30:12;1013.077030017917;;;5.6419921875;63.85547229262554
85053;BME280;75382;46.706;12.340;2024-03-06T00:31:11;1013.0524469283049;;;5.6318359375;63.89300385596161
85053;BME280;75382;46.706;12.340;2024-03-06T00:32:14;1013.0173597459226;;;5.6419921875;64.03858790014124
85053;BME280;75382;46.706;12.340;2024-03-06T00:33:11;1013.031925821457;;;5.6267578125;63.82180023470978
85053;BME280;75382;46.706;12.340;2024-03-06T00:34:12;1013.0769441977161;;;5.6267578125;64.08832966567141
85053;BME280;75382;46.706;12.340;2024-03-06T00:35:13;1013.041758647169;;;5.6166015625;64.02899692669811
85053;BME280;75382;46.706;12.340;2024-03-06T00:36:11;1013.0484115867314;;;5.6115234375;64.01102466724244
85053;BME280;75382;46.706;12.340;2024-03-06T00:37:11;1013.0763677333221;;;5.5962890625;64.0100628866895
85053;BME280;75382;46.706;12.340;2024-03-06T00:38:11;1013.0289412635634;;;5.5861328125;63.977351406372854
85053;BME280;75382;46.706;12.340;2024-03-06T00:39:15;1013.0724156458724;;;5.570703125;64.17297042906337
85053;BME280;75382;46.706;12.340;2024-03-06T00:40:13;1013.0446540810212;;;5.57578125;64.13448764527527
85053;BME280;75382;46.706;12.340;2024-03-06T00:41:11;1013.055353578706;;;5.560546875;64.18322800797758
85053;BME280;75382;46.706;12.340;2024-03-06T00:42:14;1013.0487086265488;;;5.550390625;64.14987510283653
85053;BME280;75382;46.706;12.340;2024-03-06T00:43:11;1013.0544913932822;;;5.540234375;64.21432035025224
85053;BME280;75382;46.706;12.340;2024-03-06T00:44:11;1013.0800314276831;;;5.530078125;64.32812736163667
85053;BME280;75382;46.706;12.340;2024-03-06T00:45:11;1013.0382954126611;;;5.519921875;64.12612486465322
85053;BME280;75382;46.706;12.340;2024-03-06T00:46:11;1013.0498595733587;;;5.51484375;64.21781945960763
85053;BME280;75382;46.706;12.340;2024-03-06T00:47:11;1013.0376177633636;;;5.509765625;64.4845607063711
85053;BME280;75382;46.706;12.340;2024-03-06T00:48:11;1013.0312515187226;;;5.4943359375;64.35888157439638
85053;BME280;75382;46.706;12.340;2024-03-06T00:49:11;1013.0418547603856;;;5.4994140625;63.99850644875219
85053;BME280;75382;46.706;12.340;2024-03-06T00:50:11;1012.751930753882;;;5.4841796875;64.36978199452432
85053;BME280;75382;46.706;12.340;2024-03-06T00:51:11;1013.0443591743242;;;5.4892578125;64.57045096228536
85053;BME280;75382;46.706;12.340;2024-03-06T00:52:11;1013.000119609127;;;5.4943359375;64.3473314362731
85053;BME280;75382;46.706;12.340;2024-03-06T00:53:11;1012.7366071356486;;;5.4892578125;64.21684960616302
85053;BME280;75382;46.706;12.340;2024-03-06T00:54:11;1013.0500471134956;;;5.4841796875;64.49480771907888
85053;BME280;75382;46.706;12.340;2024-03-06T00:55:11;1013.0262423497512;;;5.4994140625;64.47300791216828
85053;BME280;75382;46.706;12.340;2024-03-06T00:56:11;1013.0377117335078;;;5.5044921875;64.52238417041316
85053;BME280;75382;46.706;12.340;2024-03-06T00:57:11;1013.0532305173267;;;5.4994140625;64.20367393501043
85053;BME280;75382;46.706;12.340;2024-03-06T00:58:11;1012.9934728526049;;;5.4994140625;64.2999013455172
85053;BME280;75382;46.706;12.340;2024-03-06T00:59:11;1013.0082190390202;;;5.509765625;64.64228102707276
85053;BME280;75382;46.706;12.340;2024-03-06T01:00:12;1012.9771823675862;;;5.509765625;64.27200086952783
85053;BME280;75382;46.706;12.340;2024-03-06T01:01:16;1013.0286530608421;;;5.5044921875;64.37490703404389
85053;BME280;75382;46.706;12.340;2024-03-06T01:02:11;1012.9819084515577;;;5.4994140625;64.35343135109703
85053;BME280;75382;46.706;12.340;2024-03-06T01:03:11;1013.0286530608421;;;5.4994140625;64.31560398149139
85053;BME280;75382;46.706;12.340;2024-03-06T01:04:11;1013.0393502171682;;;5.4994140625;64.29412666944513
85053;BME280;75382;46.706;12.340;2024-03-06T01:05:11;1013.0000266277183;;;5.4587890625;64.41915910910353
85053;BME280;75382;46.706;12.340;2024-03-06T01:06:11;1013.0188220824484;;;5.4740234375;64.593232829164
85053;BME280;75382;46.706;12.340;2024-03-06T01:07:11;1012.9918342180831;;;5.4791015625;64.5456940135509
85053;BME280;75382;46.706;12.340;2024-03-06T01:08:11;1012.9745827093792;;;5.4486328125;64.40280851125145
85053;BME280;75382;46.706;12.340;2024-03-06T01:09:11;1012.9974268349251;;;5.4943359375;64.4351837741115
85053;BME280;75382;46.706;12.340;2024-03-06T01:10:11;1012.9631132502211;;;5.5044921875;64.27712729843073
85053;BME280;75382;46.706;12.340;2024-03-06T01:11:15;1012.9870132125683;;;5.4943359375;64.28770385353293
85053;BME280;75382;46.706;12.340;2024-03-06T01:12:12;1012.9934726998767;;;5.4943359375;64.61437614043157
85053;BME280;75382;46.706;12.340;2024-03-06T01:13:12;1012.9763159955085;;;5.4791015625;64.59835487399842
85053;BME280;75382;46.706;12.340;2024-03-06T01:14:11;1012.9902901224685;;;5.4892578125;64.57655573766374
85053;BME280;75382;46.706;12.340;2024-03-06T01:15:11;1012.9788209389843;;;5.4994140625;64.59290510314979
85053;BME280;75382;46.706;12.340;2024-03-06T01:16:11;1012.9927006767274;;;5.4943359375;64.51115748161646
85053;BME280;75382;46.706;12.340;2024-03-06T01:17:11;1012.9951111817371;;;5.4841796875;64.53295704147277
85053;BME280;75382;46.706;12.340;2024-03-06T01:18:11;1013.0041699575476;;;5.4943359375;64.54385676846071
85053;BME280;75382;46.706;12.340;2024-03-06T01:19:13;1012.982869867196;;;5.4943359375;64.49480771907888
85053;BME280;75382;46.706;12.340;2024-03-06T01:20:11;1012.9681236573991;;;5.4740234375;64.3861325585394
85053;BME280;75382;46.706;12.340;2024-03-06T01:21:13;1013.002531488659;;;5.4892578125;64.65863026755129
85053;BME280;75382;46.706;12.340;2024-03-06T01:22:12;1013.0277867027385;;;5.4892578125;64.63138148930251
85053;BME280;75382;46.706;12.340;2024-03-06T01:23:11;1012.9812313991741;;;5.5044921875;64.54385676846071
85053;BME280;75382;46.706;12.340;2024-03-06T01:24:11;1012.9820033287209;;;5.4943359375;64.48358138126045
85053;BME280;75382;46.706;12.340;2024-03-06T01:25:11;1012.9444134081317;;;5.4841796875;64.53295704147277
85053;BME280;75382;46.706;12.340;2024-03-06T01:26:12;1013.0001208537694;;;5.4892578125;64.3473314362731
85053;BME280;75382;46.706;12.340;2024-03-06T01:27:11;1012.9967496636641;;;5.4791015625;64.61404813695289
85053;BME280;75382;46.706;12.340;2024-03-06T01:28:11;1013.0163172352029;;;5.4689453125;64.6024931151988
85053;BME280;75382;46.706;12.340;2024-03-06T01:29:11;1012.9933792373856;;;5.4740234375;64.47747868283562
85053;BME280;75382;46.706;12.340;2024-03-06T01:30:11;1012.9967496552827;;;5.4791015625;64.49350133546226
85053;BME280;75382;46.706;12.340;2024-03-06T01:31:11;1013.007352616296;;;5.4740234375;64.6787852612525
85053;BME280;75382;46.706;12.340;2024-03-06T01:32:11;1012.9434544750844;;;5.4689453125;64.60827057142752
85053;BME280;75382;46.706;12.340;2024-03-06T01:33:11;1012.9573338386441;;;5.4791015625;64.48292844632178
85053;BME280;75382;46.706;12.340;2024-03-06T01:34:13;1012.9720796796839;;;5.4892578125;64.58647227623841
85053;BME280;75382;46.706;12.340;2024-03-06T01:35:11;1012.9483697131161;;;5.4791015625;64.52173037766325
85053;BME280;75382;46.706;12.340;2024-03-06T01:36:11;1012.9777671064455;;;5.4689453125;64.433554352366
85053;BME280;75382;46.706;12.340;2024-03-06T01:37:11;1012.9819102433771;;;5.4689453125;64.49862432237607
85053;BME280;75382;46.706;12.340;2024-03-06T01:38:11;1012.9876916389695;;;5.4689453125;64.60794261154906
85053;BME280;75382;46.706;12.340;2024-03-06T01:39:11;1012.9351676719781;;;5.4689453125;64.54287526236874
85053;BME280;75382;46.706;12.340;2024-03-06T01:40:12;1012.9777671064455;;;5.4791015625;64.44990363544441
85053;BME280;75382;46.706;12.340;2024-03-06T01:41:11;1012.9082760765773;;;5.4892578125;64.66854381122195
85053;BME280;75382;46.706;12.340;2024-03-06T01:42:11;1012.9205167055359;;;5.4740234375;64.6351899609625
85053;BME280;75382;46.706;12.340;2024-03-06T01:43:27;1012.9262984564738;;;5.4587890625;64.69992456580708
85053;BME280;75382;46.706;12.340;2024-03-06T01:44:17;1012.958387853283;;;5.4537109375;64.49218222317764
85053;BME280;75382;46.706;12.340;2024-03-06T01:45:13;1012.9321741046255;;;5.4486328125;64.65566078962534
85053;BME280;75382;46.706;12.340;2024-03-06T01:46:11;1012.9600262131408;;;5.4435546875;64.71015188077146
85053;BME280;75382;46.706;12.340;2024-03-06T01:47:11;1012.9232101113121;;;5.4486328125;64.66623036029418
85053;BME280;75382;46.706;12.340;2024-03-06T01:48:11;1012.9143398347768;;;5.4435546875;64.57806095518225
85053;BME280;75382;46.706;12.340;2024-03-06T01:49:11;1012.9618506983034;;;5.428125;64.62165283188584
85053;BME280;75382;46.706;12.340;2024-03-06T01:50:13;1013.001943159701;;;5.428125;64.92711199277167
85053;BME280;75382;46.706;12.340;2024-03-06T01:51:12;1012.9578012731754;;;5.428125;64.51136417425192
85053;BME280;75382;46.706;12.340;2024-03-06T01:52:14;1012.9611702203546;;;5.4078125;64.56552477705186
85053;BME280;75382;46.706;12.340;2024-03-06T01:53:11;1012.9191590701236;;;5.4078125;64.69662061739965
85053;BME280;75382;46.706;12.340;2024-03-06T01:54:12;1012.9955738327722;;;5.4078125;64.89754849903588
85053;BME280;75382;46.706;12.340;2024-03-06T01:55:12;1012.9996154822855;;;5.392578125;64.88087272720345
85053;BME280;75382;46.706;12.340;2024-03-06T01:56:16;1012.9799570761564;;;5.392578125;64.96158297899431
85053;BME280;75382;46.706;12.340;2024-03-06T01:57:17;1012.9841885433717;;;5.37734375;64.88531362689304
85053;BME280;75382;46.706;12.340;2024-03-06T01:58:11;1012.9195269352681;;;5.372265625;64.84651620065868
85053;BME280;75382;46.706;12.340;2024-03-06T01:59:11;1013.0218662470792;;;5.3669921875;64.7099888356143
85053;BME280;75382;46.706;12.340;2024-03-06T02:00:14;1012.9555661258705;;;5.3669921875;64.70487026614192
85053;BME280;75382;46.706;12.340;2024-03-06T02:01:11;1012.9818665255194;;;5.3568359375;64.8621970502882
85053;BME280;75382;46.706;12.340;2024-03-06T02:02:12;1012.9842787410324;;;5.3568359375;64.99771979151818
85053;BME280;75382;46.706;12.340;2024-03-06T02:03:12;1013.0114419204109;;;5.3466796875;64.83908222218369
85053;BME280;75382;46.706;12.340;2024-03-06T02:04:16;1012.9792620287294;;;5.3416015625;65.09476758963974
85053;BME280;75382;46.706;12.340;2024-03-06T02:05:11;1012.9269335751364;;;5.3365234375;65.12744913646878
85053;BME280;75382;46.706;12.340;2024-03-06T02:06:12;1012.9383999317206;;;5.3365234375;65.07809279804655
85053;BME280;75382;46.706;12.340;2024-03-06T02:07:14;1012.8991768755701;;;5.3263671875;64.99094105866187
85053;BME280;75382;46.706;12.340;2024-03-06T02:08:11;1012.9221986247089;;;5.3111328125;64.87521202440082
85053;BME280;75382;46.706;12.340;2024-03-06T02:09:12;1012.8812487165735;;;5.3060546875;65.22413637107341
85053;BME280;75382;46.706;12.340;2024-03-06T02:10:13;1012.8903025298599;;;5.3111328125;64.95691573437836
85053;BME280;75382;46.706;12.340;2024-03-06T02:11:12;1012.8935784950369;;;5.3162109375;64.788059214107
85053;BME280;75382;46.706;12.340;2024-03-06T02:12:11;1012.8346111626297;;;5.3111328125;65.19112204301439
85053;BME280;75382;46.706;12.340;2024-03-06T02:13:16;1012.8574525957822;;;5.3111328125;65.1199827390456
85053;BME280;75382;46.706;12.340;2024-03-06T02:14:11;1012.8321088817812;;;5.3162109375;65.1039774137807
85053;BME280;75382;46.706;12.340;2024-03-06T02:15:13;1012.7936616770414;;;5.3111328125;65.09819659166668
85053;BME280;75382;46.706;12.340;2024-03-06T02:16:11;1012.796846350439;;;5.3212890625;65.02539018221022
85053;BME280;75382;46.706;12.340;2024-03-06T02:17:11;1012.8377055317837;;;5.3314453125;65.1080866124346
85053;BME280;75382;46.706;12.340;2024-03-06T02:18:11;1012.8164110988142;;;5.3365234375;65.26906550491692
85053;BME280;75382;46.706;12.340;2024-03-06T02:19:11;1012.8434841354855;;;5.3162109375;64.9255757729272
85053;BME280;75382;46.706;12.340;2024-03-06T02:20:13;1012.809085716855;;;5.3263671875;65.04473127293528
85053;BME280;75382;46.706;12.340;2024-03-06T02:21:11;1012.8198693430205;;;5.3162109375;65.14755001050305
85053;BME280;75382;46.706;12.340;2024-03-06T02:22:11;1012.76754543481;;;5.3009765625;65.07607634185494
85053;BME280;75382;46.706;12.340;2024-03-06T02:23:11;1012.8092678845783;;;5.285546875;64.91779128424184
85053;BME280;75382;46.706;12.340;2024-03-06T02:24:12;1012.8207218989966;;;5.28046875;65.26569065048427
85053;BME280;75382;46.706;12.340;2024-03-06T02:25:12;1012.8224490450732;;;5.26015625;65.12342186452476
85053;BME280;75382;46.706;12.340;2024-03-06T02:26:11;1012.7642600265565;;;5.265234375;65.37359674660628
85053;BME280;75382;46.706;12.340;2024-03-06T02:27:13;1012.8322762014691;;;5.26015625;65.19866022432814
85053;BME280;75382;46.706;12.340;2024-03-06T02:28:11;1012.8258136132151;;;5.255078125;65.35113942906581
85053;BME280;75382;46.706;12.340;2024-03-06T02:29:11;1012.8012461308225;;;5.23984375;65.1322926903443
85053;BME280;75382;46.706;12.340;2024-03-06T02:30:12;1012.786683556354;;;5.244921875;65.24597857754085
85053;BME280;75382;46.706;12.340;2024-03-06T02:31:11;1012.7612534601005;;;5.234765625;65.2187514346532
85053;BME280;75382;46.706;12.340;2024-03-06T02:32:12;1012.7800435640772;;;5.2294921875;65.42533391682818
85053;BME280;75382;46.706;12.340;2024-03-06T02:33:11;1012.7212619860532;;;5.234765625;65.23986096431811
85053;BME280;75382;46.706;12.340;2024-03-06T02:34:15;1012.740914971362;;;5.2294921875;65.33787470243546
85053;BME280;75382;46.706;12.340;2024-03-06T02:35:11;1012.7261752314811;;;5.2142578125;65.47910612069589
85053;BME280;75382;46.706;12.340;2024-03-06T02:36:11;1012.7458282191881;;;5.2244140625;65.20685335233422
85053;BME280;75382;46.706;12.340;2024-03-06T02:37:11;1012.7203984073811;;;5.2294921875;65.32765868430684
85053;BME280;75382;46.706;12.340;2024-03-06T02:38:13;1012.6925564684587;;;5.2193359375;65.5941262804414
85053;BME280;75382;46.706;12.340;2024-03-06T02:39:11;1012.725222095831;;;5.234765625;65.5774518201774
85053;BME280;75382;46.706;12.340;2024-03-06T02:40:11;1012.6957419126825;;;5.23984375;65.2786508581887
85053;BME280;75382;46.706;12.340;2024-03-06T02:41:11;1012.7006552750418;;;5.23984375;65.43145563850874
85053;BME280;75382;46.706;12.340;2024-03-06T02:42:13;1012.7047046450157;;;5.25;65.502920420043
85053;BME280;75382;46.706;12.340;2024-03-06T02:43:11;1012.7022027350708;;;5.244921875;65.33888645641446
85053;BME280;75382;46.706;12.340;2024-03-06T02:44:11;1012.6816845971556;;;5.255078125;65.52946729055894
85053;BME280;75382;46.706;12.340;2024-03-06T02:45:11;1012.6546146902443;;;5.26015625;65.26945500014945
85053;BME280;75382;46.706;12.340;2024-03-06T02:46:11;1012.66849057465;;;5.2703125;65.3885695941439
85053;BME280;75382;46.706;12.340;2024-03-06T02:47:11;1012.651247143331;;;5.26015625;65.17687691671723
85053;BME280;75382;46.706;12.340;2024-03-06T02:48:11;1012.5644403614566;;;5.2703125;65.4661716182027
85053;BME280;75382;46.706;12.340;2024-03-06T02:49:11;1012.5897806625298;;;5.265234375;65.2156690278053
85053;BME280;75382;46.706;12.340;2024-03-06T02:50:11;1012.6094351842808;;;5.28046875;65.19899574457038
85053;BME280;75382;46.706;12.340;2024-03-06T02:51:11;1012.6154029965364;;;5.275390625;65.52130479768931
85053;BME280;75382;46.706;12.340;2024-03-06T02:52:11;1012.6135762527409;;;5.28046875;65.29191092098505
85053;BME280;75382;46.706;12.340;2024-03-06T02:53:11;1012.6077973071017;;;5.28046875;65.19185957942825
85053;BME280;75382;46.706;12.340;2024-03-06T02:54:11;1012.5865049098373;;;5.275390625;65.33547694144511
85053;BME280;75382;46.706;12.340;2024-03-06T02:55:16;1012.6045215529434;;;5.275390625;65.54853241738216
85053;BME280;75382;46.706;12.340;2024-03-06T02:56:16;1012.5448794123005;;;5.275390625;65.35759710117028
85053;BME280;75382;46.706;12.340;2024-03-06T02:57:16;1012.5555729797562;;;5.285546875;65.42872924241458
85053;BME280;75382;46.706;12.340;2024-03-06T02:58:11;1012.5449737319402;;;5.28046875;65.46651026286075
85053;BME280;75382;46.706;12.340;2024-03-06T02:59:11;1012.5743618951722;;;5.285546875;65.26602688945441
85053;BME280;75382;46.706;12.340;2024-03-06T03:00:15;1012.5948826520257;;;5.295703125;65.20067319119276
85053;BME280;75382;46.706;12.340;2024-03-06T03:01:11;1012.5923789786651;;;5.285546875;65.14587597952085
85053;BME280;75382;46.706;12.340;2024-03-06T03:02:11;1012.5268623500613;;;5.295703125;65.3749468991035
85053;BME280;75382;46.706;12.340;2024-03-06T03:03:21;1012.5342802566335;;;5.295703125;65.17855313107341
85053;BME280;75382;46.706;12.340;2024-03-06T03:04:11;1012.4974749951393;;;5.295703125;65.51619844895721
85053;BME280;75382;46.706;12.340;2024-03-06T03:05:11;1012.5242628289417;;;5.3009765625;65.39706824700413
85053;BME280;75382;46.706;12.340;2024-03-06T03:06:11;1012.5538407259723;;;5.290625;65.47841764232768
85053;BME280;75382;46.706;12.340;2024-03-06T03:07:11;1012.5170348649649;;;5.285546875;65.2762463040958
85053;BME280;75382;46.706;12.340;2024-03-06T03:08:11;1012.535730777182;;;5.28046875;65.39027141987931
85053;BME280;75382;46.706;12.340;2024-03-06T03:09:12;1012.574455734688;;;5.275390625;65.26468187173859
85053;BME280;75382;46.706;12.340;2024-03-06T03:10:11;1012.5391004004991;;;5.275390625;65.26468187173859
85053;BME280;75382;46.706;12.340;2024-03-06T03:11:12;1012.5791811225463;;;5.2703125;65.35725974013621
85053;BME280;75382;46.706;12.340;2024-03-06T03:12:13;1012.5810072937855;;;5.2703125;65.62442808472994
85053;BME280;75382;46.706;12.340;2024-03-06T03:13:11;1012.5587545773866;;;5.2703125;65.30280247898479
85053;BME280;75382;46.706;12.340;2024-03-06T03:14:11;1012.5908346344305;;;5.2703125;65.22111493460993
85053;BME280;75382;46.706;12.340;2024-03-06T03:15:11;1012.559526775626;;;5.2703125;65.40660846024036
85053;BME280;75382;46.706;12.340;2024-03-06T03:16:17;1012.5422822745724;;;5.275390625;65.45017351337262
85053;BME280;75382;46.706;12.340;2024-03-06T03:17:11;1012.5202181105656;;;5.28046875;65.4338366845555
85053;BME280;75382;46.706;12.340;2024-03-06T03:18:11;1012.5810072937855;;;5.275390625;65.46651026286075
85053;BME280;75382;46.706;12.340;2024-03-06T03:19:11;1012.5441076659064;;;5.28046875;65.6026467569128
85053;BME280;75382;46.706;12.340;2024-03-06T03:20:11;1012.574455734688;;;5.285546875;65.36916352388035
85053;BME280;75382;46.706;12.340;2024-03-06T03:21:11;1012.5924725247713;;;5.275390625;65.53764139594864
85053;BME280;75382;46.706;12.340;2024-03-06T03:22:11;1012.5662662873151;;;5.28046875;65.54274737823337
85053;BME280;75382;46.706;12.340;2024-03-06T03:23:12;1012.5679041766563;;;5.28046875;65.4338366845555
85053;BME280;75382;46.706;12.340;2024-03-06T03:24:11;1012.5621245891363;;;5.275390625;65.48250809582548
85053;BME280;75382;46.706;12.340;2024-03-06T03:25:12;1012.591418538976;;;5.275390625;65.44983506125281
85053;BME280;75382;46.706;12.340;2024-03-06T03:26:13;1012.5586610227114;;;5.26015625;65.52641099894713
85053;BME280;75382;46.706;12.340;2024-03-06T03:27:11;1012.5522031840248;;;5.26015625;65.62374706289634
85053;BME280;75382;46.706;12.340;2024-03-06T03:28:11;1012.5407382482066;;;5.255078125;65.32935710858956
85053;BME280;75382;46.706;12.340;2024-03-06T03:29:13;1012.5793668504677;;;5.244921875;65.62271235468675
85053;BME280;75382;46.706;12.340;2024-03-06T03:30:13;1012.6113500930329;;;5.25;65.51891659667281
85053;BME280;75382;46.706;12.340;2024-03-06T03:31:11;1012.5729080485482;;;5.244921875;65.54035729786294
85053;BME280;75382;46.706;12.340;2024-03-06T03:32:11;1012.5795511492953;;;5.2244140625;65.32732156134871
85053;BME280;75382;46.706;12.340;2024-03-06T03:33:11;1012.5835996319843;;;5.2244140625;65.45800406749254
85053;BME280;75382;46.706;12.340;2024-03-06T03:34:11;1012.5975664687821;;;5.2142578125;65.47944506134418
85053;BME280;75382;46.706;12.340;2024-03-06T03:35:11;1012.5918800722028;;;5.2142578125;65.74044805245693
85053;BME280;75382;46.706;12.340;2024-03-06T03:36:11;1012.5797340191679;;;5.2041015625;65.62509137351512
85053;BME280;75382;46.706;12.340;2024-03-06T03:37:13;1012.6130704484992;;;5.2091796875;65.86566719974647
85053;BME280;75382;46.706;12.340;2024-03-06T03:38:13;1012.6458242640188;;;5.2041015625;65.79317826494476
85053;BME280;75382;46.706;12.340;2024-03-06T03:39:16;1012.6647024303055;;;5.1837890625;65.63019499494823
85053;BME280;75382;46.706;12.340;2024-03-06T03:40:12;1012.6370407542416;;;5.1736328125;65.92244144090346
85053;BME280;75382;46.706;12.340;2024-03-06T03:41:13;1012.6779813849208;;;5.1634765625;65.67202962192198
85053;BME280;75382;46.706;12.340;2024-03-06T03:42:11;1012.6395416614647;;;5.1634765625;65.72646855969687
85053;BME280;75382;46.706;12.340;2024-03-06T03:43:16;1012.6231655532105;;;5.1787109375;65.76491772689492
85053;BME280;75382;46.706;12.340;2024-03-06T03:44:11;1012.6510049412057;;;5.1736328125;65.95475778670466
85053;BME280;75382;46.706;12.340;2024-03-06T03:45:11;1012.6510934277616;;;5.158203125;65.93773847249845
85053;BME280;75382;46.706;12.340;2024-03-06T03:46:11;1012.693670659037;;;5.153125;65.90576669002805
85053;BME280;75382;46.706;12.340;2024-03-06T03:47:11;1012.69125806171;;;5.153125;65.69175548174229
85053;BME280;75382;46.706;12.340;2024-03-06T03:48:11;1012.7273713999203;;;5.14296875;65.88296100771112
85053;BME280;75382;46.706;12.340;2024-03-06T03:49:11;1012.7380585983199;;;5.137890625;65.78463676096794